Carrothers, Ohio
Current Conditions -  °F | °C
As of 4:36 PM on Wednesday 26 Nov 2014 (Local Time) from KMFD Reporting Station
Overcast Overcast  
Wind Chill: 27°   Ceiling: 2900
Heat Index: 33°   Visibility: 10mi
Dew Point: 26°   Wind: 7mph
Humidity: 75%   Direction: 320°NW
Pressure: 30.03"   Gusts: NA
Location:  41.0654°N, 82.876°W
Report Text: KMFD 262136Z 32006KT 10SM OVC029 01/M03 A3003 RMK AO2 T00061033
Loading
Personal Weather Stations






























Interactive Weather Map New forecast layout! Learn more

10-Day Weather Forecast

Advertisements
Track Severe Weather on mobile